createdAt,value
2022-09-12T00:01:34.771Z,26.14
2022-09-12T00:04:03.484Z,26.17
2022-09-12T00:06:37.289Z,26.21
2022-09-12T00:09:10.629Z,26.26
2022-09-12T00:11:44.396Z,26.29
2022-09-12T00:14:18.379Z,26.33
2022-09-12T00:16:47.156Z,26.37
2022-09-12T00:19:15.732Z,26.41
2022-09-12T00:21:44.514Z,26.45
2022-09-12T00:24:13.149Z,26.49
2022-09-12T00:26:42.079Z,26.51
2022-09-12T00:29:16.100Z,26.53
2022-09-12T00:31:44.695Z,26.55
2022-09-12T00:34:13.302Z,26.60
2022-09-12T00:36:42.147Z,26.59
2022-09-12T00:39:18.077Z,26.60
2022-09-12T00:41:47.227Z,26.62
2022-09-12T00:44:24.397Z,26.65
2022-09-12T00:47:01.641Z,26.69
2022-09-12T00:49:31.665Z,26.73
2022-09-12T00:52:11.431Z,26.79
2022-09-12T00:54:45.228Z,26.80
2022-09-12T00:57:16.623Z,26.83
2022-09-12T00:59:54.704Z,26.86
2022-09-12T01:02:23.681Z,26.90
2022-09-12T01:04:53.255Z,26.91
2022-09-12T01:07:22.701Z,26.94
2022-09-12T01:09:51.695Z,26.98
2022-09-12T01:12:20.499Z,27.01
2022-09-12T01:14:49.008Z,27.02
2022-09-12T01:17:17.935Z,27.04
2022-09-12T01:20:29.648Z,27.08
2022-09-12T01:23:08.597Z,27.13
2022-09-12T01:26:11.390Z,27.17
2022-09-12T01:29:04.862Z,27.23
2022-09-12T01:31:42.454Z,27.25
2022-09-12T01:34:27.444Z,27.30
2022-09-12T01:37:02.233Z,27.33
2022-09-12T01:39:45.048Z,27.36
2022-09-12T01:42:13.612Z,27.42
2022-09-12T01:44:56.290Z,27.45
2022-09-12T01:47:51.691Z,27.51
2022-09-12T01:50:28.433Z,27.57
2022-09-12T01:53:03.346Z,27.62
2022-09-12T01:55:37.498Z,27.65
2022-09-12T01:58:22.138Z,27.67
2022-09-12T02:01:11.606Z,27.67
2022-09-12T02:04:05.806Z,27.68
2022-09-12T02:06:49.697Z,27.71
2022-09-12T02:09:24.506Z,27.74
2022-09-12T02:11:59.310Z,27.77
2022-09-12T02:14:32.604Z,27.79
2022-09-12T02:17:14.973Z,27.81
2022-09-12T02:19:49.456Z,27.81
2022-09-12T02:22:21.560Z,27.84
2022-09-12T02:24:55.515Z,27.88
2022-09-12T02:27:41.411Z,27.93
2022-09-12T02:30:10.859Z,27.95
2022-09-12T02:32:46.488Z,27.97
2022-09-12T02:35:32.166Z,28.00
2022-09-12T02:38:26.902Z,28.02
2022-09-12T02:40:56.686Z,28.04
2022-09-12T02:43:25.562Z,28.07
2022-09-12T02:45:55.054Z,28.10
2022-09-12T02:48:29.349Z,28.11
2022-09-12T02:50:58.415Z,28.14
2022-09-12T02:53:28.142Z,28.18
2022-09-12T02:55:56.917Z,28.23
2022-09-12T02:58:30.921Z,28.28
2022-09-12T03:01:13.444Z,28.31
2022-09-12T03:04:15.859Z,28.40
2022-09-12T03:06:44.224Z,28.42
2022-09-12T03:09:19.797Z,28.43
2022-09-12T03:12:04.146Z,28.45
2022-09-12T03:15:24.195Z,28.49
2022-09-12T03:18:20.398Z,28.57
2022-09-12T03:21:17.707Z,28.58
2022-09-12T03:24:25.823Z,28.66
2022-09-12T03:27:09.782Z,28.72
2022-09-12T03:29:41.766Z,28.79
2022-09-12T03:32:10.426Z,28.84
2022-09-12T03:34:38.981Z,28.89
2022-09-12T03:37:07.824Z,28.97
2022-09-12T03:39:36.381Z,29.02
2022-09-12T03:42:05.186Z,29.05
2022-09-12T03:44:33.674Z,29.05
2022-09-12T03:47:02.272Z,29.06
2022-09-12T03:49:30.724Z,29.06
2022-09-12T03:51:59.184Z,29.08
2022-09-12T03:54:27.840Z,29.10
2022-09-12T03:56:56.425Z,29.14
2022-09-12T03:59:24.933Z,29.18
2022-09-12T04:01:53.455Z,29.23
2022-09-12T04:04:21.963Z,29.27
2022-09-12T04:06:50.708Z,29.31
2022-09-12T04:09:19.264Z,29.35
2022-09-12T04:11:47.782Z,29.40
2022-09-12T04:14:16.307Z,29.43
2022-09-12T04:16:44.874Z,29.47
2022-09-12T04:19:13.939Z,29.53
2022-09-12T04:21:42.525Z,29.57
2022-09-12T04:24:11.012Z,29.60
2022-09-12T04:26:39.669Z,29.64
2022-09-12T04:29:08.132Z,29.66
2022-09-12T04:31:36.659Z,29.70
2022-09-12T04:34:06.574Z,29.71
2022-09-12T04:36:35.471Z,29.74
2022-09-12T04:39:05.453Z,29.75
2022-09-12T04:41:36.672Z,29.77
2022-09-12T04:44:14.192Z,29.80
2022-09-12T04:46:46.006Z,29.84
2022-09-12T04:49:17.630Z,29.87
2022-09-12T04:52:02.112Z,29.89
2022-09-12T04:57:17.008Z,29.95
2022-09-12T04:59:45.418Z,30.00
2022-09-12T05:02:13.931Z,30.01
2022-09-12T05:07:11.388Z,30.07
2022-09-12T05:09:39.957Z,30.04
2022-09-12T05:12:09.469Z,30.05
2022-09-12T05:14:37.984Z,30.06
2022-09-12T05:17:07.110Z,30.08
2022-09-12T05:19:35.872Z,30.11
2022-09-12T05:22:06.051Z,30.16
2022-09-12T05:24:34.829Z,30.12
2022-09-12T05:27:05.771Z,30.12
2022-09-12T05:29:35.146Z,30.10
2022-09-12T05:32:05.753Z,30.08
2022-09-12T05:34:34.253Z,30.04
2022-09-12T05:37:02.825Z,29.99
2022-09-12T05:39:31.380Z,29.95
2022-09-12T05:41:59.886Z,29.90
2022-09-12T05:44:29.262Z,29.88
2022-09-12T05:46:57.788Z,29.89
2022-09-12T05:49:26.441Z,29.90
2022-09-12T05:51:54.979Z,29.96
2022-09-12T05:54:24.357Z,30.01
2022-09-12T05:56:54.022Z,30.03
2022-09-12T05:59:25.134Z,30.05
2022-09-12T06:01:53.760Z,30.08
2022-09-12T06:04:22.277Z,30.08
2022-09-12T06:06:51.273Z,30.08
2022-09-12T06:09:20.140Z,30.16
2022-09-12T06:11:48.822Z,30.13
2022-09-12T06:14:18.681Z,30.14
2022-09-12T06:16:48.494Z,30.13
2022-09-12T06:19:22.619Z,30.11
2022-09-12T06:21:52.695Z,30.08
2022-09-12T06:24:22.719Z,30.04
2022-09-12T06:26:53.735Z,29.96
2022-09-12T06:29:23.023Z,29.82
2022-09-12T06:31:51.795Z,29.69
2022-09-12T06:34:21.025Z,29.57
2022-09-12T06:36:53.969Z,29.44
2022-09-12T06:39:24.801Z,29.32
2022-09-12T06:41:54.007Z,29.20
2022-09-12T06:44:24.551Z,29.13
2022-09-12T06:46:54.837Z,29.10
2022-09-12T06:49:23.303Z,29.08
2022-09-12T06:51:53.423Z,29.06
2022-09-12T06:54:22.384Z,29.05
2022-09-12T06:56:51.011Z,29.01
2022-09-12T06:59:21.177Z,28.99
2022-09-12T07:01:49.756Z,28.92
2022-09-12T07:04:18.198Z,28.82
2022-09-12T07:06:46.736Z,28.74
2022-09-12T07:09:19.508Z,28.67
2022-09-12T07:11:48.404Z,28.60
2022-09-12T07:14:17.350Z,28.56
2022-09-12T07:16:46.097Z,28.52
2022-09-12T07:19:14.691Z,28.50
2022-09-12T07:21:43.594Z,28.49
2022-09-12T07:24:12.443Z,28.45
2022-09-12T07:26:43.087Z,28.44
2022-09-12T07:29:37.389Z,28.44
2022-09-12T07:32:07.166Z,28.42
2022-09-12T07:34:36.614Z,28.42
2022-09-12T07:37:05.628Z,28.41
2022-09-12T07:39:34.275Z,28.39
2022-09-12T07:42:05.008Z,28.38
2022-09-12T07:44:33.685Z,28.35
2022-09-12T07:47:02.660Z,28.33
2022-09-12T07:49:31.623Z,28.33
2022-09-12T07:52:00.132Z,28.31
2022-09-12T07:54:28.808Z,28.31
2022-09-12T07:56:57.674Z,28.30
2022-09-12T07:59:51.017Z,28.30
2022-09-12T08:02:17.350Z,28.29
2022-09-12T08:04:46.511Z,28.29
2022-09-12T08:07:15.047Z,28.27
2022-09-12T08:09:43.546Z,28.29
2022-09-12T08:12:12.087Z,28.31
2022-09-12T08:14:40.603Z,28.31
2022-09-12T08:17:09.170Z,28.32
2022-09-12T08:19:38.609Z,28.31
2022-09-12T08:22:07.382Z,28.33
2022-09-12T08:24:35.970Z,28.33
2022-09-12T08:27:04.446Z,28.30
2022-09-12T08:29:33.069Z,28.30
2022-09-12T08:32:01.733Z,28.28
2022-09-12T08:34:30.163Z,28.28
2022-09-12T08:36:58.809Z,28.28
2022-09-12T08:39:27.526Z,28.24
2022-09-12T08:42:07.270Z,28.24
2022-09-12T08:44:54.672Z,28.22
2022-09-12T08:47:36.034Z,28.19
2022-09-12T08:50:22.070Z,28.16
2022-09-12T08:52:59.650Z,28.15
2022-09-12T08:55:38.472Z,28.15
2022-09-12T08:58:22.330Z,28.16
2022-09-12T09:01:15.074Z,28.13
2022-09-12T09:03:50.096Z,28.09
2022-09-12T09:06:53.275Z,28.08
2022-09-12T09:09:30.349Z,28.08
2022-09-12T09:12:45.660Z,28.08
2022-09-12T09:15:34.826Z,28.07
2022-09-12T09:18:07.509Z,28.06
2022-09-12T09:20:45.268Z,28.05
2022-09-12T09:23:34.475Z,28.05
2022-09-12T09:26:10.678Z,28.07
2022-09-12T09:28:48.568Z,28.06
2022-09-12T09:31:22.795Z,28.04
2022-09-12T09:33:53.428Z,28.04
2022-09-12T09:36:31.330Z,28.06
2022-09-12T09:39:07.412Z,28.05
2022-09-12T09:42:18.053Z,28.04
2022-09-12T09:44:50.081Z,28.02
2022-09-12T09:47:20.767Z,28.02
2022-09-12T09:49:49.403Z,28.01
2022-09-12T09:52:22.337Z,28.02
2022-09-12T09:54:59.527Z,28.01
2022-09-12T09:57:37.244Z,27.99
2022-09-12T10:00:26.005Z,27.98
2022-09-12T10:03:29.844Z,27.98
2022-09-12T10:06:38.082Z,27.98
2022-09-12T10:09:14.293Z,27.95
2022-09-12T10:11:45.880Z,27.92
2022-09-12T10:14:42.279Z,27.89
2022-09-12T10:17:34.545Z,27.87
2022-09-12T10:20:20.941Z,27.84
2022-09-12T10:22:51.146Z,27.84
2022-09-12T10:25:22.210Z,27.82
2022-09-12T10:28:02.361Z,27.78
2022-09-12T10:30:30.967Z,27.76
2022-09-12T10:33:09.398Z,27.75
2022-09-12T10:35:51.018Z,27.74
2022-09-12T10:38:27.271Z,27.70
2022-09-12T10:41:07.651Z,27.70
2022-09-12T10:43:38.374Z,27.67
2022-09-12T10:46:33.048Z,27.68
2022-09-12T10:49:29.767Z,27.65
2022-09-12T10:52:17.786Z,27.60
2022-09-12T10:54:46.912Z,27.57
2022-09-12T10:57:30.842Z,27.53
2022-09-12T11:00:17.911Z,27.49
2022-09-12T11:03:12.101Z,27.48
2022-09-12T11:06:01.671Z,27.46
2022-09-12T11:08:46.766Z,27.44
2022-09-12T11:11:34.401Z,27.43
2022-09-12T11:14:20.917Z,27.40
2022-09-12T11:17:13.500Z,27.39
2022-09-12T11:20:03.485Z,27.37
2022-09-12T11:22:42.627Z,27.36
2022-09-12T11:25:36.171Z,27.35
2022-09-12T11:28:24.055Z,27.35
2022-09-12T11:31:09.997Z,27.34
2022-09-12T11:33:48.069Z,27.33
2022-09-12T11:36:58.121Z,27.32
2022-09-12T11:39:39.847Z,27.31
2022-09-12T11:42:20.831Z,27.29
2022-09-12T11:45:13.342Z,27.28
2022-09-12T11:47:46.623Z,27.27
2022-09-12T11:50:41.972Z,27.24
2022-09-12T11:53:16.226Z,27.24
2022-09-12T11:56:10.509Z,27.23
2022-09-12T11:58:42.952Z,27.20
2022-09-12T12:01:26.402Z,27.19
2022-09-12T12:03:56.572Z,27.19
2022-09-12T12:06:29.131Z,27.18
2022-09-12T12:08:58.635Z,27.16
2022-09-12T12:11:33.255Z,27.14
2022-09-12T12:14:18.987Z,27.12
2022-09-12T12:16:48.499Z,27.08
2022-09-12T12:19:16.909Z,27.08
2022-09-12T12:21:48.733Z,27.07
2022-09-12T12:24:35.439Z,27.06
2022-09-12T12:27:25.196Z,27.05
2022-09-12T12:29:53.641Z,27.04
2022-09-12T12:32:24.065Z,27.03
2022-09-12T12:35:02.606Z,27.03
2022-09-12T12:37:31.013Z,27.03
2022-09-12T12:40:08.750Z,27.02
2022-09-12T12:42:37.421Z,27.02
2022-09-12T12:45:05.876Z,27.01
2022-09-12T12:47:48.557Z,26.99
2022-09-12T12:50:22.790Z,26.98
2022-09-12T12:52:51.174Z,26.97
2022-09-12T12:55:27.558Z,26.96
2022-09-12T12:57:59.062Z,26.96
2022-09-12T13:00:28.818Z,26.94
2022-09-12T13:03:08.448Z,26.94
2022-09-12T13:05:48.419Z,26.93
2022-09-12T13:08:19.903Z,26.93
2022-09-12T13:11:19.243Z,26.92
2022-09-12T13:13:59.211Z,26.90
2022-09-12T13:16:35.316Z,26.86
2022-09-12T13:19:18.379Z,26.84
2022-09-12T13:22:07.403Z,26.83
2022-09-12T13:24:47.102Z,26.82
2022-09-12T13:27:24.233Z,26.80
2022-09-12T13:30:14.562Z,26.80
2022-09-12T13:32:45.084Z,26.80
2022-09-12T13:35:26.919Z,26.79
2022-09-12T13:38:07.754Z,26.79
2022-09-12T13:41:02.066Z,26.78
2022-09-12T13:43:49.779Z,26.77
2022-09-12T13:46:31.135Z,26.76
2022-09-12T13:49:03.095Z,26.76
2022-09-12T13:51:33.601Z,26.75
2022-09-12T13:54:07.082Z,26.73
2022-09-12T13:56:35.701Z,26.74
2022-09-12T13:59:04.674Z,26.73
2022-09-12T14:01:42.264Z,26.73
2022-09-12T14:04:36.567Z,26.73
2022-09-12T14:07:12.712Z,26.71
2022-09-12T14:09:44.708Z,26.70
2022-09-12T14:12:44.508Z,26.71
2022-09-12T14:15:28.413Z,26.70
2022-09-12T14:18:02.851Z,26.70
2022-09-12T14:20:33.724Z,26.69
2022-09-12T14:23:33.217Z,26.68
2022-09-12T14:26:07.637Z,26.70
2022-09-12T14:28:38.635Z,26.69
2022-09-12T14:31:14.283Z,26.69
2022-09-12T14:33:51.562Z,26.69
2022-09-12T14:36:35.237Z,26.69
2022-09-12T14:39:26.436Z,26.68
2022-09-12T14:42:07.721Z,26.68
2022-09-12T14:44:37.834Z,26.69
2022-09-12T14:47:17.106Z,26.69
2022-09-12T14:49:45.744Z,26.69
2022-09-12T14:52:25.132Z,26.68
2022-09-12T14:55:02.444Z,26.68
2022-09-12T14:57:36.125Z,26.67
2022-09-12T15:00:13.976Z,26.65
2022-09-12T15:02:47.093Z,26.63
2022-09-12T15:05:22.815Z,26.63
2022-09-12T15:07:58.017Z,26.61
2022-09-12T15:10:39.218Z,26.60
2022-09-12T15:13:07.681Z,26.60
2022-09-12T15:15:40.732Z,26.58
2022-09-12T15:18:09.713Z,26.58
2022-09-12T15:20:43.587Z,26.57
2022-09-12T15:23:37.035Z,26.56
2022-09-12T15:26:06.023Z,26.55
2022-09-12T15:28:35.402Z,26.55
2022-09-12T15:31:09.765Z,26.55
2022-09-12T15:33:38.313Z,26.52
2022-09-12T15:36:16.821Z,26.53
2022-09-12T15:38:46.747Z,26.50
2022-09-12T15:41:22.019Z,26.49
2022-09-12T15:43:51.536Z,26.48
2022-09-12T15:46:21.293Z,26.47
2022-09-12T15:48:50.167Z,26.45
2022-09-12T15:51:22.094Z,26.44
2022-09-12T15:53:52.275Z,26.43
2022-09-12T15:56:22.531Z,26.43
2022-09-12T15:58:59.884Z,26.42
2022-09-12T16:01:30.125Z,26.41
2022-09-12T16:03:58.974Z,26.40
2022-09-12T16:06:30.608Z,26.39
2022-09-12T16:09:02.233Z,26.39
2022-09-12T16:11:30.779Z,26.37
2022-09-12T16:13:59.422Z,26.36
2022-09-12T16:16:27.973Z,26.35
2022-09-12T16:18:56.471Z,26.35
2022-09-12T16:21:25.395Z,26.35
2022-09-12T16:23:54.253Z,26.36
2022-09-12T16:26:22.801Z,26.37
2022-09-12T16:29:01.429Z,26.36
2022-09-12T16:31:30.118Z,26.37
2022-09-12T16:33:58.728Z,26.35
2022-09-12T16:36:27.144Z,26.35
2022-09-12T16:38:55.900Z,26.34
2022-09-12T16:41:26.503Z,26.34
2022-09-12T16:43:55.910Z,26.36
2022-09-12T16:46:27.367Z,26.34
2022-09-12T16:48:57.936Z,26.32
2022-09-12T16:51:33.433Z,26.32
2022-09-12T16:54:02.038Z,26.33
2022-09-12T16:56:31.104Z,26.31
2022-09-12T16:58:59.773Z,26.29
2022-09-12T17:01:28.711Z,26.28
2022-09-12T17:03:58.715Z,26.28
2022-09-12T17:06:28.876Z,26.28
2022-09-12T17:09:05.269Z,26.27
2022-09-12T17:11:37.444Z,26.25
2022-09-12T17:14:09.042Z,26.25
2022-09-12T17:16:40.965Z,26.23
2022-09-12T17:19:13.285Z,26.22
2022-09-12T17:21:41.912Z,26.21
2022-09-12T17:24:10.429Z,26.19
2022-09-12T17:26:38.974Z,26.18
2022-09-12T17:29:07.779Z,26.16
2022-09-12T17:31:36.482Z,26.15
2022-09-12T17:34:05.214Z,26.15
2022-09-12T17:36:35.159Z,26.14
2022-09-12T17:39:05.243Z,26.14
2022-09-12T17:41:34.379Z,26.13
2022-09-12T17:44:04.033Z,26.12
2022-09-12T17:46:42.295Z,26.12
2022-09-12T17:49:18.128Z,26.10
2022-09-12T17:51:46.824Z,26.10
2022-09-12T17:54:17.962Z,26.09
2022-09-12T17:56:51.381Z,26.07
2022-09-12T17:59:22.526Z,26.08
2022-09-12T18:02:09.454Z,26.07
2022-09-12T18:04:38.521Z,26.07
2022-09-12T18:07:07.116Z,26.07
2022-09-12T18:09:37.300Z,26.07
2022-09-12T18:12:07.059Z,26.07
2022-09-12T18:14:36.071Z,26.07
2022-09-12T18:17:05.597Z,26.06
2022-09-12T18:19:34.400Z,26.06
2022-09-12T18:22:03.855Z,26.04
2022-09-12T18:24:32.351Z,26.03
2022-09-12T18:27:02.860Z,26.03
2022-09-12T18:29:31.577Z,26.03
2022-09-12T18:32:00.343Z,26.04
2022-09-12T18:34:29.297Z,26.04
2022-09-12T18:36:57.842Z,26.05
2022-09-12T18:39:27.835Z,26.03
2022-09-12T18:41:56.755Z,26.04
2022-09-12T18:44:25.267Z,26.04
2022-09-12T18:46:53.987Z,26.04
2022-09-12T18:49:22.542Z,26.05
2022-09-12T18:51:51.509Z,26.05
2022-09-12T18:54:20.424Z,26.05
2022-09-12T18:56:49.041Z,26.04
2022-09-12T18:59:17.763Z,26.04
2022-09-12T19:01:46.448Z,26.04
2022-09-12T19:04:17.067Z,26.03
2022-09-12T19:06:48.171Z,26.02
2022-09-12T19:09:19.850Z,26.03
2022-09-12T19:11:53.639Z,26.02
2022-09-12T19:14:24.706Z,26.02
2022-09-12T19:16:53.823Z,26.00
2022-09-12T19:19:22.936Z,26.00
2022-09-12T19:21:51.403Z,25.99
2022-09-12T19:24:20.155Z,25.98
2022-09-12T19:26:49.436Z,25.97
2022-09-12T19:29:18.690Z,25.95
2022-09-12T19:31:47.712Z,25.95
2022-09-12T19:34:17.017Z,25.94
2022-09-12T19:36:46.989Z,25.94
2022-09-12T19:39:17.355Z,25.93
2022-09-12T19:41:46.697Z,25.91
2022-09-12T19:44:15.382Z,25.91
2022-09-12T19:46:43.929Z,25.92
2022-09-12T19:49:13.995Z,25.91
2022-09-12T19:51:42.650Z,25.92
2022-09-12T19:54:11.312Z,25.90
2022-09-12T19:56:39.851Z,25.90
2022-09-12T19:59:08.420Z,25.89
2022-09-12T20:01:38.116Z,25.88
2022-09-12T20:04:07.601Z,25.86
2022-09-12T20:06:36.647Z,25.87
2022-09-12T20:09:05.651Z,25.86
2022-09-12T20:11:34.226Z,25.88
2022-09-12T20:14:03.139Z,25.87
2022-09-12T20:16:32.170Z,25.89
2022-09-12T20:19:08.161Z,25.88
2022-09-12T20:21:37.796Z,25.88
2022-09-12T20:24:09.321Z,25.89
2022-09-12T20:26:37.927Z,25.88
2022-09-12T20:29:08.044Z,25.89
2022-09-12T20:31:38.818Z,25.90
2022-09-12T20:34:08.743Z,25.90
2022-09-12T20:36:37.198Z,25.90
2022-09-12T20:39:06.074Z,25.90
2022-09-12T20:41:39.287Z,25.90
2022-09-12T20:44:07.823Z,25.88
2022-09-12T20:46:36.336Z,25.88
2022-09-12T20:49:05.496Z,25.87
2022-09-12T20:51:34.231Z,25.88
2022-09-12T20:54:05.657Z,25.86
2022-09-12T20:56:36.510Z,25.87
2022-09-12T20:59:06.269Z,25.87
2022-09-12T21:01:35.562Z,25.86
2022-09-12T21:04:04.394Z,25.85
2022-09-12T21:06:33.153Z,25.86
2022-09-12T21:09:01.600Z,25.86
2022-09-12T21:11:30.377Z,25.86
2022-09-12T21:13:59.391Z,25.85
2022-09-12T21:16:28.609Z,25.85
2022-09-12T21:18:59.759Z,25.84
2022-09-12T21:21:28.547Z,25.83
2022-09-12T21:24:04.021Z,25.81
2022-09-12T21:26:33.483Z,25.81
2022-09-12T21:29:02.083Z,25.80
2022-09-12T21:31:31.635Z,25.79
2022-09-12T21:34:00.195Z,25.77
2022-09-12T21:36:28.711Z,25.76
2022-09-12T21:39:00.296Z,25.76
2022-09-12T21:41:29.899Z,25.77
2022-09-12T21:43:58.387Z,25.75
2022-09-12T21:46:27.166Z,25.74
2022-09-12T21:48:55.750Z,25.73
2022-09-12T21:51:24.272Z,25.72
2022-09-12T21:53:52.751Z,25.72
2022-09-12T21:56:21.296Z,25.70
2022-09-12T21:58:49.823Z,25.69
2022-09-12T22:01:18.534Z,25.67
2022-09-12T22:03:47.201Z,25.67
2022-09-12T22:06:17.765Z,25.67
2022-09-12T22:08:49.093Z,25.67
2022-09-12T22:11:20.080Z,25.66
2022-09-12T22:13:48.669Z,25.66
2022-09-12T22:16:18.820Z,25.67
2022-09-12T22:18:51.737Z,25.67
2022-09-12T22:21:23.126Z,25.66
2022-09-12T22:24:10.479Z,25.65
2022-09-12T22:26:44.719Z,25.65
2022-09-12T22:29:16.949Z,25.65
2022-09-12T22:31:45.660Z,25.64
2022-09-12T22:34:14.364Z,25.64
2022-09-12T22:36:43.142Z,25.63
2022-09-12T22:39:12.159Z,25.64
2022-09-12T22:41:40.736Z,25.63
2022-09-12T22:44:09.306Z,25.63
2022-09-12T22:46:38.970Z,25.62
2022-09-12T22:49:08.602Z,25.64
2022-09-12T22:51:37.334Z,25.63
2022-09-12T22:54:06.800Z,25.62
2022-09-12T22:56:35.386Z,25.61
2022-09-12T22:59:03.851Z,25.62
2022-09-12T23:01:32.918Z,25.61
2022-09-12T23:04:02.156Z,25.60
2022-09-12T23:06:30.689Z,25.62
2022-09-12T23:08:59.215Z,25.61
2022-09-12T23:11:28.780Z,25.61
2022-09-12T23:13:57.288Z,25.61
2022-09-12T23:16:27.877Z,25.61
2022-09-12T23:18:56.449Z,25.62
2022-09-12T23:21:25.568Z,25.62
2022-09-12T23:23:54.072Z,25.62
2022-09-12T23:26:29.315Z,25.61
2022-09-12T23:29:03.077Z,25.57
2022-09-12T23:31:33.377Z,25.57
2022-09-12T23:34:04.426Z,25.56
2022-09-12T23:36:33.442Z,25.56
2022-09-12T23:39:01.990Z,25.57
2022-09-12T23:41:30.624Z,25.58
2022-09-12T23:43:59.299Z,25.61
2022-09-12T23:46:28.075Z,25.62
2022-09-12T23:48:56.583Z,25.62
2022-09-12T23:51:25.070Z,25.61
2022-09-12T23:53:53.575Z,25.60
2022-09-12T23:56:23.200Z,25.59
2022-09-12T23:58:51.755Z,25.60
